createdAt,value
2017-12-30T00:02:24.271Z,5.65
2017-12-30T00:04:52.610Z,4.62
2017-12-30T00:07:20.911Z,6.07
2017-12-30T00:09:48.454Z,8.82
2017-12-30T00:12:16.784Z,5.78
2017-12-30T00:14:45.085Z,5.55
2017-12-30T00:17:13.636Z,6.15
2017-12-30T00:19:41.936Z,4.78
2017-12-30T00:22:10.249Z,5.05
2017-12-30T00:24:38.547Z,4.48
2017-12-30T00:27:06.103Z,5.17
2017-12-30T00:29:34.399Z,5.17
2017-12-30T00:32:02.739Z,5.03
2017-12-30T00:34:31.034Z,4.68
2017-12-30T00:36:59.337Z,5.75
2017-12-30T00:39:27.661Z,4.67
2017-12-30T00:41:55.949Z,4.90
2017-12-30T00:44:24.270Z,4.90
2017-12-30T00:46:52.573Z,4.53
2017-12-30T00:49:20.889Z,4.08
2017-12-30T00:51:49.182Z,4.97
2017-12-30T00:54:17.510Z,4.30
2017-12-30T00:56:45.807Z,4.27
2017-12-30T00:59:14.115Z,4.67
2017-12-30T01:01:42.433Z,5.02
2017-12-30T01:04:10.734Z,4.42
2017-12-30T01:06:39.062Z,4.17
2017-12-30T01:09:07.363Z,4.87
2017-12-30T01:11:35.679Z,3.85
2017-12-30T01:14:03.983Z,4.60
2017-12-30T01:16:32.307Z,5.20
2017-12-30T01:19:00.610Z,4.85
2017-12-30T01:21:28.934Z,4.42
2017-12-30T01:23:57.226Z,4.50
2017-12-30T01:26:25.529Z,5.28
2017-12-30T01:28:53.860Z,5.18
2017-12-30T01:31:22.157Z,6.63
2017-12-30T01:33:50.491Z,12.00
2017-12-30T01:36:18.800Z,5.33
2017-12-30T01:38:47.119Z,8.03
2017-12-30T01:41:15.443Z,8.40
2017-12-30T01:43:43.771Z,5.80
2017-12-30T01:46:12.071Z,6.47
2017-12-30T01:49:00.986Z,7.53
2017-12-30T01:51:29.288Z,7.25
2017-12-30T01:53:57.621Z,9.35
2017-12-30T01:56:25.935Z,6.08
2017-12-30T01:58:54.245Z,6.70
2017-12-30T02:01:21.815Z,8.37
2017-12-30T02:03:50.114Z,5.68
2017-12-30T02:06:18.430Z,4.90
2017-12-30T02:08:45.967Z,5.68
2017-12-30T02:11:14.287Z,4.68
2017-12-30T02:13:42.596Z,5.17
2017-12-30T02:16:10.923Z,5.30
2017-12-30T02:18:39.226Z,5.22
2017-12-30T02:21:07.579Z,5.30
2017-12-30T02:23:35.890Z,6.63
2017-12-30T02:26:04.202Z,4.93
2017-12-30T02:28:32.514Z,4.97
2017-12-30T02:31:00.818Z,5.48
2017-12-30T02:33:29.134Z,5.30
2017-12-30T02:35:57.432Z,4.33
2017-12-30T02:38:24.983Z,5.33
2017-12-30T02:40:53.282Z,4.28
2017-12-30T02:43:21.602Z,4.73
2017-12-30T02:45:49.897Z,3.87
2017-12-30T02:48:17.475Z,4.40
2017-12-30T02:50:45.782Z,4.58
2017-12-30T02:53:14.092Z,4.42
2017-12-30T02:55:42.415Z,4.47
2017-12-30T02:58:10.711Z,4.18
2017-12-30T03:00:39.041Z,5.55
2017-12-30T03:03:06.580Z,4.55
2017-12-30T03:05:34.903Z,4.17
2017-12-30T03:08:03.202Z,4.70
2017-12-30T03:10:31.545Z,5.08
2017-12-30T03:12:59.076Z,5.40
2017-12-30T03:15:27.374Z,5.10
2017-12-30T03:17:55.701Z,4.33
2017-12-30T03:20:24.007Z,5.18
2017-12-30T03:22:52.338Z,5.25
2017-12-30T03:25:20.638Z,5.25
2017-12-30T03:27:48.968Z,5.90
2017-12-30T03:30:17.267Z,5.30
2017-12-30T03:32:45.611Z,5.78
2017-12-30T03:35:13.911Z,6.77
2017-12-30T03:37:42.210Z,5.65
2017-12-30T03:40:10.541Z,5.18
2017-12-30T03:42:38.072Z,5.23
2017-12-30T03:45:06.394Z,5.37
2017-12-30T03:47:34.694Z,6.07
2017-12-30T03:50:03.029Z,6.98
2017-12-30T03:52:31.326Z,6.35
2017-12-30T03:54:59.667Z,6.43
2017-12-30T03:57:27.970Z,8.70
2017-12-30T03:59:56.271Z,8.98
2017-12-30T04:02:24.600Z,9.20
2017-12-30T04:04:52.899Z,6.20
2017-12-30T04:07:21.230Z,6.17
2017-12-30T04:09:49.535Z,10.97
2017-12-30T04:12:17.099Z,8.02
2017-12-30T04:14:45.407Z,7.58
2017-12-30T04:17:13.935Z,6.67
2017-12-30T04:19:42.250Z,6.68
2017-12-30T04:22:10.576Z,6.43
2017-12-30T04:24:38.894Z,5.70
2017-12-30T04:27:06.426Z,6.30
2017-12-30T04:29:34.007Z,6.17
2017-12-30T04:32:01.539Z,5.73
2017-12-30T04:34:29.862Z,6.62
2017-12-30T04:36:58.161Z,6.18
2017-12-30T04:39:26.518Z,5.68
2017-12-30T04:41:54.818Z,5.12
2017-12-30T04:44:22.360Z,4.30
2017-12-30T04:46:50.687Z,4.37
2017-12-30T04:49:18.230Z,4.35
2017-12-30T04:51:46.559Z,4.28
2017-12-30T04:54:14.858Z,4.12
2017-12-30T04:56:43.183Z,4.80
2017-12-30T04:59:11.478Z,4.03
2017-12-30T05:01:39.030Z,5.00
2017-12-30T05:04:06.562Z,4.32
2017-12-30T05:06:34.891Z,5.18
2017-12-30T05:09:03.200Z,4.72
2017-12-30T05:11:31.504Z,5.12
2017-12-30T05:13:59.824Z,4.67
2017-12-30T05:16:28.119Z,4.53
2017-12-30T05:18:56.441Z,4.65
2017-12-30T05:21:24.738Z,4.57
2017-12-30T05:23:53.063Z,4.50
2017-12-30T05:26:21.382Z,4.43
2017-12-30T05:28:48.939Z,3.97
2017-12-30T05:31:17.242Z,3.63
2017-12-30T05:33:45.570Z,3.97
2017-12-30T05:36:13.882Z,3.40
2017-12-30T05:38:41.455Z,3.53
2017-12-30T05:41:08.986Z,3.50
2017-12-30T05:43:37.287Z,3.10
2017-12-30T05:46:05.603Z,3.25
2017-12-30T05:48:33.130Z,3.08
2017-12-30T05:51:01.456Z,2.93
2017-12-30T05:53:29.756Z,3.62
2017-12-30T05:55:58.083Z,2.70
2017-12-30T05:58:26.378Z,2.87
2017-12-30T06:00:54.704Z,2.88
2017-12-30T06:03:23.009Z,2.97
2017-12-30T06:05:51.331Z,2.85
2017-12-30T06:08:19.638Z,2.63
2017-12-30T06:10:47.944Z,2.97
2017-12-30T06:13:16.260Z,2.35
2017-12-30T06:15:44.558Z,2.50
2017-12-30T06:18:12.873Z,2.42
2017-12-30T06:20:41.170Z,2.50
2017-12-30T06:23:09.490Z,2.38
2017-12-30T06:25:37.793Z,2.60
2017-12-30T06:28:06.115Z,2.25
2017-12-30T06:30:34.415Z,2.48
2017-12-30T06:33:02.735Z,2.18
2017-12-30T06:35:31.031Z,2.37
2017-12-30T06:37:58.606Z,2.23
2017-12-30T06:40:26.906Z,2.65
2017-12-30T06:42:55.211Z,2.33
2017-12-30T06:45:23.547Z,2.37
2017-12-30T06:47:51.846Z,2.42
2017-12-30T06:50:20.167Z,2.80
2017-12-30T06:52:48.466Z,2.48
2017-12-30T06:55:16.797Z,2.18
2017-12-30T06:57:45.090Z,2.50
2017-12-30T07:00:13.415Z,2.27
2017-12-30T07:02:41.718Z,2.42
2017-12-30T07:05:10.041Z,1.65
2017-12-30T07:07:38.338Z,1.90
2017-12-30T07:10:06.654Z,2.00
2017-12-30T07:12:34.946Z,2.60
2017-12-30T07:15:03.268Z,2.10
2017-12-30T07:17:31.570Z,3.40
2017-12-30T07:19:59.899Z,2.18
2017-12-30T07:22:28.199Z,1.72
2017-12-30T07:24:56.521Z,2.57
2017-12-30T07:27:24.826Z,1.85
2017-12-30T07:29:52.412Z,1.62
2017-12-30T07:32:20.708Z,2.83
2017-12-30T07:34:49.026Z,5.07
2017-12-30T07:37:16.562Z,5.33
2017-12-30T07:39:44.889Z,2.98
2017-12-30T07:42:12.425Z,3.30
2017-12-30T07:44:40.748Z,4.67
2017-12-30T07:47:09.055Z,4.18
2017-12-30T07:49:37.374Z,3.92
2017-12-30T07:52:04.906Z,2.65
2017-12-30T07:54:33.232Z,2.23
2017-12-30T07:57:01.531Z,2.87
2017-12-30T07:59:29.100Z,3.52
2017-12-30T08:01:57.396Z,3.33
2017-12-30T08:04:25.687Z,4.83
2017-12-30T08:06:54.016Z,6.88
2017-12-30T08:09:22.311Z,2.05
2017-12-30T08:11:50.638Z,1.70
2017-12-30T08:14:18.938Z,2.17
2017-12-30T08:16:47.262Z,2.25
2017-12-30T08:19:15.566Z,1.65
2017-12-30T08:21:43.887Z,1.65
2017-12-30T08:24:12.182Z,1.50
2017-12-30T08:26:40.508Z,1.22
2017-12-30T08:29:08.806Z,1.42
2017-12-30T08:31:36.357Z,1.65
2017-12-30T08:34:03.900Z,1.75
2017-12-30T08:36:32.215Z,2.33
2017-12-30T08:39:00.514Z,1.57
2017-12-30T08:41:28.842Z,1.43
2017-12-30T08:43:57.143Z,2.03
2017-12-30T08:46:25.490Z,1.70
2017-12-30T08:48:53.786Z,1.35
2017-12-30T08:51:21.348Z,2.07
2017-12-30T08:53:49.651Z,1.60
2017-12-30T08:56:17.979Z,1.73
2017-12-30T08:58:45.515Z,1.40
2017-12-30T09:01:13.863Z,1.67
2017-12-30T09:03:42.159Z,1.62
2017-12-30T09:06:10.484Z,1.50
2017-12-30T09:08:38.785Z,1.68
2017-12-30T09:11:06.338Z,1.90
2017-12-30T09:13:33.878Z,3.52
2017-12-30T09:16:02.204Z,20.00
2017-12-30T09:18:30.512Z,53.10
2017-12-30T09:20:58.832Z,36.23
2017-12-30T09:23:27.150Z,10.07
2017-12-30T09:25:55.476Z,5.60
2017-12-30T09:28:23.778Z,2.80
2017-12-30T09:30:52.110Z,4.07
2017-12-30T09:33:20.408Z,4.07
2017-12-30T09:35:48.754Z,24.97
2017-12-30T09:38:17.053Z,4.60
2017-12-30T09:40:45.351Z,3.18
2017-12-30T09:43:13.674Z,4.43
2017-12-30T09:45:41.987Z,9.82
2017-12-30T09:48:10.311Z,2.17
2017-12-30T09:50:37.846Z,1.75
2017-12-30T09:53:06.167Z,1.95
2017-12-30T09:55:34.474Z,2.65
2017-12-30T09:58:02.794Z,2.02
2017-12-30T10:00:31.100Z,1.87
2017-12-30T10:02:59.442Z,13.97
2017-12-30T10:05:27.758Z,2.10
2017-12-30T10:07:56.080Z,1.85
2017-12-30T10:10:24.381Z,2.10
2017-12-30T10:12:52.716Z,2.10
2017-12-30T10:15:21.018Z,2.38
2017-12-30T10:17:49.353Z,2.63
2017-12-30T10:20:17.659Z,2.42
2017-12-30T10:22:45.999Z,2.55
2017-12-30T10:25:14.305Z,2.48
2017-12-30T10:27:42.650Z,2.20
2017-12-30T10:30:10.202Z,2.58
2017-12-30T10:32:38.579Z,2.65
2017-12-30T10:35:06.878Z,2.38
2017-12-30T10:37:35.202Z,3.10
2017-12-30T10:40:02.738Z,2.72
2017-12-30T10:42:30.306Z,3.20
2017-12-30T10:44:58.612Z,3.35
2017-12-30T10:47:26.941Z,4.27
2017-12-30T10:49:55.251Z,2.97
2017-12-30T10:52:23.624Z,3.50
2017-12-30T10:54:51.915Z,3.90
2017-12-30T10:57:20.252Z,4.47
2017-12-30T10:59:48.571Z,4.48
2017-12-30T11:02:16.914Z,3.75
2017-12-30T11:04:45.236Z,4.15
2017-12-30T11:07:13.564Z,5.13
2017-12-30T11:09:41.978Z,4.82
2017-12-30T11:12:09.550Z,5.10
2017-12-30T11:14:37.900Z,4.82
2017-12-30T11:17:06.201Z,5.16
2017-12-30T11:19:33.759Z,7.14
2017-12-30T11:22:02.072Z,5.58
2017-12-30T11:24:29.680Z,5.68
2017-12-30T11:26:57.994Z,6.44
2017-12-30T11:29:25.560Z,6.20
2017-12-30T11:31:53.102Z,5.96
2017-12-30T11:34:21.463Z,5.52
2017-12-30T11:36:49.795Z,6.16
2017-12-30T11:39:17.374Z,7.22
2017-12-30T11:41:44.918Z,6.54
2017-12-30T11:44:12.482Z,7.08
2017-12-30T11:46:40.786Z,6.36
2017-12-30T11:49:08.351Z,6.44
2017-12-30T11:51:35.892Z,8.22
2017-12-30T11:54:04.221Z,6.90
2017-12-30T11:56:32.539Z,7.50
2017-12-30T11:59:00.114Z,7.54
2017-12-30T12:01:28.424Z,8.18
2017-12-30T12:03:55.990Z,7.24
2017-12-30T12:06:24.299Z,6.52
2017-12-30T12:08:52.643Z,6.92
2017-12-30T12:11:20.186Z,7.54
2017-12-30T12:13:47.758Z,8.06
2017-12-30T12:16:16.068Z,7.66
2017-12-30T12:18:44.405Z,8.52
2017-12-30T12:21:12.718Z,7.88
2017-12-30T12:23:41.056Z,6.34
2017-12-30T12:26:09.370Z,7.54
2017-12-30T12:28:36.931Z,8.16
2017-12-30T12:31:05.268Z,7.20
2017-12-30T12:33:32.830Z,7.68
2017-12-30T12:36:01.148Z,6.54
2017-12-30T12:38:28.718Z,8.90
2017-12-30T12:40:57.031Z,8.26
2017-12-30T12:43:24.579Z,7.22
2017-12-30T12:45:52.903Z,7.32
2017-12-30T12:48:20.443Z,7.46
2017-12-30T12:50:48.771Z,8.66
2017-12-30T12:53:16.310Z,7.20
2017-12-30T12:55:44.640Z,6.94
2017-12-30T12:58:12.955Z,8.20
2017-12-30T13:00:41.286Z,7.86
2017-12-30T13:03:08.838Z,6.18
2017-12-30T13:05:37.166Z,6.92
2017-12-30T13:08:05.480Z,6.94
2017-12-30T13:10:33.046Z,6.68
2017-12-30T13:13:00.582Z,7.96
2017-12-30T13:15:28.915Z,7.00
2017-12-30T13:17:57.224Z,7.12
2017-12-30T13:20:25.550Z,7.56
2017-12-30T13:22:53.856Z,6.62
2017-12-30T13:25:22.200Z,6.98
2017-12-30T13:27:50.503Z,7.00
2017-12-30T13:30:18.064Z,7.08
2017-12-30T13:32:45.622Z,6.08
2017-12-30T13:35:13.954Z,7.94
2017-12-30T13:37:41.498Z,8.38
2017-12-30T13:40:09.826Z,8.56
2017-12-30T13:42:37.366Z,7.40
2017-12-30T13:45:05.694Z,6.78
2017-12-30T13:47:33.242Z,7.16
2017-12-30T13:50:00.802Z,7.54
2017-12-30T13:52:28.351Z,6.38
2017-12-30T13:54:56.674Z,6.98
2017-12-30T13:57:24.214Z,6.92
2017-12-30T13:59:52.543Z,9.34
2017-12-30T14:02:20.083Z,7.04
2017-12-30T14:04:48.406Z,7.60
2017-12-30T14:07:15.951Z,6.96
2017-12-30T14:09:43.517Z,7.30
2017-12-30T14:12:11.816Z,6.46
2017-12-30T14:14:40.158Z,6.48
2017-12-30T14:17:07.703Z,7.44
2017-12-30T14:19:36.015Z,6.42
2017-12-30T14:22:03.582Z,6.90
2017-12-30T14:24:31.893Z,7.68
2017-12-30T14:27:00.211Z,6.82
2017-12-30T14:29:27.791Z,6.78
2017-12-30T14:31:56.122Z,6.92
2017-12-30T14:34:23.662Z,8.32
2017-12-30T14:36:51.992Z,6.22
2017-12-30T14:39:19.548Z,5.80
2017-12-30T14:41:47.123Z,9.20
2017-12-30T14:44:15.434Z,7.83
2017-12-30T14:46:43.758Z,8.08
2017-12-30T14:49:12.062Z,12.42
2017-12-30T14:51:39.637Z,10.38
2017-12-30T14:54:07.941Z,7.22
2017-12-30T14:56:36.266Z,6.88
2017-12-30T14:59:04.584Z,6.98
2017-12-30T15:01:32.151Z,7.36
2017-12-30T15:03:59.697Z,6.34
2017-12-30T15:06:28.027Z,7.98
2017-12-30T15:08:55.576Z,7.52
2017-12-30T15:11:23.138Z,7.28
2017-12-30T15:13:50.679Z,7.16
2017-12-30T15:16:19.011Z,7.60
2017-12-30T15:18:46.550Z,8.32
2017-12-30T15:21:14.885Z,8.18
2017-12-30T15:23:43.194Z,6.50
2017-12-30T15:26:11.523Z,9.00
2017-12-30T15:28:39.833Z,7.84
2017-12-30T15:31:07.394Z,7.60
2017-12-30T15:33:35.701Z,7.60
2017-12-30T15:36:04.032Z,8.54
2017-12-30T15:38:32.342Z,6.38
2017-12-30T15:40:59.907Z,7.14
2017-12-30T15:43:28.215Z,5.94
2017-12-30T15:45:56.521Z,7.76
2017-12-30T15:48:24.084Z,6.50
2017-12-30T15:50:51.618Z,8.18
2017-12-30T15:53:19.184Z,6.92
2017-12-30T15:55:47.499Z,7.26
2017-12-30T15:58:15.831Z,5.96
2017-12-30T16:00:44.150Z,6.56
2017-12-30T16:03:12.495Z,7.26
2017-12-30T16:05:40.800Z,6.90
2017-12-30T16:08:08.395Z,6.13
2017-12-30T16:10:36.715Z,6.16
2017-12-30T16:13:05.052Z,6.98
2017-12-30T16:15:33.373Z,6.76
2017-12-30T16:18:01.712Z,5.64
2017-12-30T16:20:29.254Z,7.36
2017-12-30T16:22:56.819Z,7.30
2017-12-30T16:25:25.143Z,6.18
2017-12-30T16:27:53.480Z,5.58
2017-12-30T16:30:21.795Z,6.10
2017-12-30T16:32:49.361Z,5.62
2017-12-30T16:35:17.679Z,7.12
2017-12-30T16:37:45.239Z,5.22
2017-12-30T16:40:12.774Z,5.92
2017-12-30T16:42:41.106Z,6.46
2017-12-30T16:45:09.413Z,5.88
2017-12-30T16:47:36.977Z,5.62
2017-12-30T16:50:05.282Z,4.68
2017-12-30T16:52:33.618Z,7.10
2017-12-30T16:55:01.942Z,6.06
2017-12-30T16:57:29.510Z,6.56
2017-12-30T16:59:57.048Z,6.18
2017-12-30T17:02:25.382Z,6.58
2017-12-30T17:04:53.696Z,5.72
2017-12-30T17:07:21.260Z,5.90
2017-12-30T17:09:49.588Z,5.94
2017-12-30T17:12:17.214Z,5.34
2017-12-30T17:14:45.544Z,5.32
2017-12-30T17:17:13.127Z,6.42
2017-12-30T17:19:41.444Z,5.70
2017-12-30T17:22:08.994Z,5.84
2017-12-30T17:24:37.330Z,6.10
2017-12-30T17:27:05.635Z,4.98
2017-12-30T17:29:33.964Z,6.34
2017-12-30T17:32:02.276Z,5.50
2017-12-30T17:34:30.618Z,6.34
2017-12-30T17:36:58.930Z,5.70
2017-12-30T17:39:27.279Z,5.64
2017-12-30T17:41:54.830Z,7.16
2017-12-30T17:44:22.391Z,5.86
2017-12-30T17:46:50.707Z,5.48
2017-12-30T17:49:19.042Z,6.32
2017-12-30T17:51:46.611Z,5.42
2017-12-30T17:54:14.175Z,7.12
2017-12-30T17:56:42.487Z,6.28
2017-12-30T17:59:10.060Z,8.58
2017-12-30T18:01:37.616Z,6.66
2017-12-30T18:04:05.187Z,8.24
2017-12-30T18:06:33.496Z,4.90
2017-12-30T18:09:01.065Z,6.38
2017-12-30T18:11:28.644Z,5.58
2017-12-30T18:13:56.220Z,5.02
2017-12-30T18:16:24.531Z,7.28
2017-12-30T18:18:52.856Z,10.76
2017-12-30T18:21:21.155Z,5.20
2017-12-30T18:23:49.476Z,4.66
2017-12-30T18:26:17.777Z,5.88
2017-12-30T18:28:46.104Z,5.04
2017-12-30T18:31:14.402Z,5.62
2017-12-30T18:33:42.719Z,6.38
2017-12-30T18:36:11.016Z,9.94
2017-12-30T18:38:39.333Z,5.84
2017-12-30T18:41:07.624Z,6.52
2017-12-30T18:43:35.931Z,5.78
2017-12-30T18:46:04.237Z,5.18
2017-12-30T18:48:31.796Z,6.66
2017-12-30T18:51:00.084Z,5.10
2017-12-30T18:53:28.375Z,5.52
2017-12-30T18:55:56.696Z,4.94
2017-12-30T18:58:24.988Z,4.62
2017-12-30T19:00:53.307Z,5.28
2017-12-30T19:03:21.611Z,5.00
2017-12-30T19:05:49.934Z,5.78
2017-12-30T19:08:18.603Z,5.50
2017-12-30T19:10:46.920Z,5.32
2017-12-30T19:13:15.207Z,4.92
2017-12-30T19:15:43.516Z,5.26
2017-12-30T19:18:11.816Z,5.20
2017-12-30T19:20:40.136Z,4.80
2017-12-30T19:23:08.432Z,4.10
2017-12-30T19:25:36.744Z,5.14
2017-12-30T19:28:05.037Z,5.12
2017-12-30T19:30:33.347Z,5.36
2017-12-30T19:33:01.660Z,5.72
2017-12-30T19:35:29.979Z,5.46
2017-12-30T19:37:58.280Z,5.40
2017-12-30T19:40:26.595Z,4.94
2017-12-30T19:42:54.904Z,4.68
2017-12-30T19:45:23.232Z,5.64
2017-12-30T19:47:50.767Z,4.84
2017-12-30T19:50:19.089Z,5.76
2017-12-30T19:52:46.619Z,4.78
2017-12-30T19:55:14.932Z,4.88
2017-12-30T19:57:43.247Z,4.36
2017-12-30T20:00:11.573Z,4.52
2017-12-30T20:02:39.878Z,4.28
2017-12-30T20:05:08.201Z,4.98
2017-12-30T20:07:36.508Z,4.66
2017-12-30T20:10:04.830Z,4.52
2017-12-30T20:12:33.128Z,4.54
2017-12-30T20:15:01.445Z,5.22
2017-12-30T20:17:29.735Z,3.90
2017-12-30T20:19:58.053Z,5.08
2017-12-30T20:22:26.348Z,4.82
2017-12-30T20:24:54.664Z,5.14
2017-12-30T20:27:22.963Z,4.20
2017-12-30T20:29:51.302Z,4.68
2017-12-30T20:32:19.605Z,5.14
2017-12-30T20:34:47.896Z,4.60
2017-12-30T20:37:16.220Z,4.68
2017-12-30T20:39:44.521Z,5.02
2017-12-30T20:42:12.851Z,5.34
2017-12-30T20:44:41.148Z,4.04
2017-12-30T20:47:09.464Z,4.52
2017-12-30T20:49:37.760Z,5.44
2017-12-30T20:52:06.080Z,4.54
2017-12-30T20:54:34.368Z,5.28
2017-12-30T20:57:02.680Z,4.72
2017-12-30T20:59:30.972Z,5.06
2017-12-30T21:01:59.285Z,4.68
2017-12-30T21:04:27.580Z,4.66
2017-12-30T21:06:55.904Z,4.98
2017-12-30T21:09:24.203Z,3.78
2017-12-30T21:11:52.524Z,3.82
2017-12-30T21:14:20.812Z,4.28
2017-12-30T21:16:49.124Z,4.32
2017-12-30T21:19:17.407Z,4.22
2017-12-30T21:21:45.719Z,4.22
2017-12-30T21:24:14.007Z,4.04
2017-12-30T21:26:42.319Z,3.86
2017-12-30T21:29:10.616Z,4.10
2017-12-30T21:31:38.940Z,4.58
2017-12-30T21:34:07.235Z,3.94
2017-12-30T21:36:35.528Z,4.00
2017-12-30T21:39:03.839Z,3.70
2017-12-30T21:41:32.128Z,3.88
2017-12-30T21:44:00.436Z,4.28
2017-12-30T21:46:28.733Z,4.12
2017-12-30T21:48:57.035Z,4.06
2017-12-30T21:51:25.323Z,4.44
2017-12-30T21:53:53.636Z,4.10
2017-12-30T21:56:21.932Z,3.88
2017-12-30T21:58:50.268Z,4.50
2017-12-30T22:01:18.563Z,4.80
2017-12-30T22:03:46.847Z,4.10
2017-12-30T22:06:15.161Z,4.48
2017-12-30T22:08:43.445Z,3.66
2017-12-30T22:11:11.759Z,4.12
2017-12-30T22:13:40.059Z,3.80
2017-12-30T22:16:08.376Z,4.14
2017-12-30T22:18:36.672Z,4.62
2017-12-30T22:21:04.988Z,3.58
2017-12-30T22:23:33.556Z,4.36
2017-12-30T22:26:01.876Z,3.92
2017-12-30T22:28:30.195Z,4.70
2017-12-30T22:30:58.494Z,3.42
2017-12-30T22:33:26.822Z,3.76
2017-12-30T22:35:55.112Z,3.34
2017-12-30T22:38:23.444Z,4.98
2017-12-30T22:40:51.732Z,3.60
2017-12-30T22:43:20.018Z,3.30
2017-12-30T22:45:48.329Z,3.48
2017-12-30T22:48:16.625Z,3.28
2017-12-30T22:50:44.932Z,3.12
2017-12-30T22:53:13.222Z,2.98
2017-12-30T22:55:41.535Z,3.26
2017-12-30T22:58:09.827Z,4.20
2017-12-30T23:00:39.079Z,3.12
2017-12-30T23:03:06.595Z,3.58
2017-12-30T23:05:34.895Z,3.48
2017-12-30T23:08:03.212Z,2.84
2017-12-30T23:10:31.514Z,4.92
2017-12-30T23:12:59.820Z,5.60
2017-12-30T23:15:27.350Z,3.06
2017-12-30T23:17:55.668Z,3.10
2017-12-30T23:20:23.955Z,3.00
2017-12-30T23:22:52.288Z,2.92
2017-12-30T23:25:20.574Z,1.94
2017-12-30T23:27:48.864Z,2.74
2017-12-30T23:30:17.176Z,3.06
2017-12-30T23:32:45.475Z,2.40
2017-12-30T23:35:13.797Z,2.12
2017-12-30T23:37:42.083Z,3.00
2017-12-30T23:40:10.396Z,2.32
2017-12-30T23:42:38.683Z,3.68
2017-12-30T23:45:07.008Z,4.82
2017-12-30T23:47:35.297Z,2.38
2017-12-30T23:50:03.586Z,1.84
2017-12-30T23:52:31.917Z,3.00
2017-12-30T23:55:00.207Z,1.98
2017-12-30T23:57:28.511Z,1.88
2017-12-30T23:59:56.800Z,2.36
